createdAt,value
2022-10-05T00:00:16.000Z,12.18
2022-10-05T00:01:26.000Z,12.18
2022-10-05T00:02:18.000Z,12.20
2022-10-05T00:03:12.000Z,12.18
2022-10-05T00:04:31.000Z,12.17
2022-10-05T00:05:28.000Z,12.15
2022-10-05T00:06:13.000Z,12.18
2022-10-05T00:07:17.000Z,12.17
2022-10-05T00:08:21.000Z,12.17
2022-10-05T00:09:19.000Z,12.17
2022-10-05T00:10:16.000Z,12.17
2022-10-05T00:11:15.000Z,12.15
2022-10-05T00:12:15.000Z,12.11
2022-10-05T00:13:15.000Z,12.11
2022-10-05T00:14:15.000Z,12.14
2022-10-05T00:15:16.000Z,12.12
2022-10-05T00:16:18.000Z,12.09
2022-10-05T00:17:18.000Z,12.09
2022-10-05T00:18:19.000Z,12.11
2022-10-05T00:19:27.000Z,12.11
2022-10-05T00:20:23.000Z,12.09
2022-10-05T00:21:25.000Z,12.08
2022-10-05T00:22:17.000Z,12.09
2022-10-05T00:23:18.000Z,12.09
2022-10-05T00:24:17.000Z,12.12
2022-10-05T00:25:20.000Z,12.08
2022-10-05T00:26:19.000Z,12.08
2022-10-05T00:27:19.000Z,12.08
2022-10-05T00:28:21.000Z,12.09
2022-10-05T00:29:20.000Z,12.05
2022-10-05T00:30:16.000Z,12.06
2022-10-05T00:31:19.000Z,12.06
2022-10-05T00:32:13.000Z,12.05
2022-10-05T00:33:13.000Z,12.05
2022-10-05T00:34:14.000Z,12.04
2022-10-05T00:35:14.000Z,12.08
2022-10-05T00:36:13.000Z,12.06
2022-10-05T00:37:13.000Z,12.04
2022-10-05T00:38:13.000Z,12.05
2022-10-05T00:39:13.000Z,12.05
2022-10-05T00:40:26.000Z,12.08
2022-10-05T00:41:22.000Z,12.05
2022-10-05T00:42:33.000Z,12.08
2022-10-05T00:43:24.000Z,12.06
2022-10-05T00:44:36.000Z,12.06
2022-10-05T00:45:31.000Z,12.06
2022-10-05T00:46:34.000Z,12.08
2022-10-05T00:47:23.000Z,12.05
2022-10-05T00:48:30.000Z,12.04
2022-10-05T00:49:36.000Z,12.02
2022-10-05T00:50:23.000Z,12.02
2022-10-05T00:51:23.000Z,12.05
2022-10-05T00:52:42.000Z,12.02
2022-10-05T00:53:23.000Z,12.01
2022-10-05T00:54:28.000Z,12.04
2022-10-05T00:55:23.000Z,12.01
2022-10-05T00:56:27.000Z,12.02
2022-10-05T00:57:26.000Z,12.01
2022-10-05T00:58:46.000Z,12.01
2022-10-05T00:59:23.000Z,11.98
2022-10-05T01:00:17.000Z,12.00
2022-10-05T01:01:16.000Z,11.98
2022-10-05T01:02:36.000Z,11.98
2022-10-05T01:03:24.000Z,11.97
2022-10-05T01:04:33.000Z,11.98
2022-10-05T01:05:23.000Z,11.95
2022-10-05T01:06:23.000Z,11.94
2022-10-05T01:07:33.000Z,11.92
2022-10-05T01:08:27.000Z,11.92
2022-10-05T01:09:27.000Z,11.92
2022-10-05T01:10:39.000Z,11.92
2022-10-05T01:11:23.000Z,11.92
2022-10-05T01:12:23.000Z,11.92
2022-10-05T01:13:36.000Z,11.90
2022-10-05T01:14:23.000Z,11.91
2022-10-05T01:15:22.000Z,11.92
2022-10-05T01:16:23.000Z,11.91
2022-10-05T01:17:25.000Z,11.88
2022-10-05T01:18:25.000Z,11.88
2022-10-05T01:19:23.000Z,11.90
2022-10-05T01:20:23.000Z,11.88
2022-10-05T01:21:18.000Z,11.83
2022-10-05T01:22:33.000Z,11.83
2022-10-05T01:23:32.000Z,11.80
2022-10-05T01:24:33.000Z,11.81
2022-10-05T01:25:23.000Z,11.83
2022-10-05T01:26:36.000Z,11.78
2022-10-05T01:27:23.000Z,11.78
2022-10-05T01:28:24.000Z,11.77
2022-10-05T01:29:24.000Z,11.77
2022-10-05T01:30:18.000Z,11.76
2022-10-05T01:31:23.000Z,11.77
2022-10-05T01:32:23.000Z,11.78
2022-10-05T01:33:35.000Z,11.73
2022-10-05T01:34:28.000Z,11.74
2022-10-05T01:35:28.000Z,11.74
2022-10-05T01:36:22.000Z,11.70
2022-10-05T01:37:25.000Z,11.70
2022-10-05T01:38:35.000Z,11.70
2022-10-05T01:39:25.000Z,11.64
2022-10-05T01:40:31.000Z,11.64
2022-10-05T01:41:32.000Z,11.64
2022-10-05T01:42:30.000Z,11.66
2022-10-05T01:43:35.000Z,11.64
2022-10-05T01:44:20.000Z,11.64
2022-10-05T01:45:32.000Z,11.64
2022-10-05T01:46:22.000Z,11.64
2022-10-05T01:47:21.000Z,11.63
2022-10-05T01:48:20.000Z,11.63
2022-10-05T01:49:22.000Z,11.60
2022-10-05T01:50:22.000Z,11.60
2022-10-05T01:51:49.000Z,11.60
2022-10-05T01:52:22.000Z,11.60
2022-10-05T01:53:22.000Z,11.57
2022-10-05T01:54:35.000Z,11.59
2022-10-05T01:55:22.000Z,11.59
2022-10-05T01:56:36.000Z,11.61
2022-10-05T01:57:22.000Z,11.54
2022-10-05T01:58:22.000Z,11.56
2022-10-05T01:59:37.000Z,11.54
2022-10-05T02:00:15.000Z,11.54
2022-10-05T02:01:36.000Z,11.53
2022-10-05T02:02:16.000Z,11.52
2022-10-05T02:03:19.000Z,11.52
2022-10-05T02:04:20.000Z,11.52
2022-10-05T02:05:19.000Z,11.50
2022-10-05T02:06:18.000Z,11.52
2022-10-05T02:07:23.000Z,11.52
2022-10-05T02:08:18.000Z,11.52
2022-10-05T02:09:22.000Z,11.52
2022-10-05T02:10:27.000Z,11.50
2022-10-05T02:11:13.000Z,11.53
2022-10-05T02:12:18.000Z,11.50
2022-10-05T02:13:31.000Z,11.52
2022-10-05T02:14:19.000Z,11.50
2022-10-05T02:15:17.000Z,11.49
2022-10-05T02:16:31.000Z,11.52
2022-10-05T02:17:17.000Z,11.49
2022-10-05T02:18:19.000Z,11.50
2022-10-05T02:19:23.000Z,11.50
2022-10-05T02:20:21.000Z,11.47
2022-10-05T02:21:13.000Z,11.50
2022-10-05T02:22:33.000Z,11.50
2022-10-05T02:23:18.000Z,11.46
2022-10-05T02:24:28.000Z,11.45
2022-10-05T02:25:16.000Z,11.42
2022-10-05T02:26:15.000Z,11.40
2022-10-05T02:27:20.000Z,11.39
2022-10-05T02:28:23.000Z,11.38
2022-10-05T02:29:15.000Z,11.35
2022-10-05T02:30:15.000Z,11.33
2022-10-05T02:31:17.000Z,11.33
2022-10-05T02:32:21.000Z,11.30
2022-10-05T02:33:36.000Z,11.27
2022-10-05T02:34:25.000Z,11.30
2022-10-05T02:35:16.000Z,11.29
2022-10-05T02:36:22.000Z,11.23
2022-10-05T02:37:22.000Z,11.26
2022-10-05T02:38:22.000Z,11.22
2022-10-05T02:39:29.000Z,11.22
2022-10-05T02:40:35.000Z,11.18
2022-10-05T02:41:25.000Z,11.18
2022-10-05T02:42:23.000Z,11.19
2022-10-05T02:43:22.000Z,11.15
2022-10-05T02:44:31.000Z,11.15
2022-10-05T02:45:23.000Z,11.12
2022-10-05T02:46:32.000Z,11.12
2022-10-05T02:47:24.000Z,11.11
2022-10-05T02:48:29.000Z,11.09
2022-10-05T02:49:32.000Z,11.09
2022-10-05T02:50:40.000Z,11.09
2022-10-05T02:51:23.000Z,11.09
2022-10-05T02:52:21.000Z,11.09
2022-10-05T02:53:23.000Z,11.06
2022-10-05T02:54:32.000Z,11.03
2022-10-05T02:55:38.000Z,11.01
2022-10-05T02:56:22.000Z,11.01
2022-10-05T02:57:22.000Z,11.02
2022-10-05T02:58:21.000Z,10.99
2022-10-05T02:59:23.000Z,10.96
2022-10-05T03:00:19.000Z,10.96
2022-10-05T03:01:26.000Z,10.96
2022-10-05T03:02:21.000Z,10.98
2022-10-05T03:03:21.000Z,10.96
2022-10-05T03:04:22.000Z,10.96
2022-10-05T03:05:23.000Z,10.98
2022-10-05T03:06:20.000Z,10.96
2022-10-05T03:07:21.000Z,10.94
2022-10-05T03:08:23.000Z,10.95
2022-10-05T03:09:19.000Z,10.94
2022-10-05T03:10:24.000Z,10.92
2022-10-05T03:11:22.000Z,10.94
2022-10-05T03:12:29.000Z,10.92
2022-10-05T03:13:35.000Z,10.91
2022-10-05T03:14:19.000Z,10.92
2022-10-05T03:15:22.000Z,10.91
2022-10-05T03:16:22.000Z,10.92
2022-10-05T03:17:18.000Z,10.92
2022-10-05T03:18:45.000Z,10.91
2022-10-05T03:19:32.000Z,10.91
2022-10-05T03:20:31.000Z,10.90
2022-10-05T03:21:31.000Z,10.88
2022-10-05T03:22:22.000Z,10.87
2022-10-05T03:23:32.000Z,10.82
2022-10-05T03:24:22.000Z,10.84
2022-10-05T03:25:28.000Z,10.82
2022-10-05T03:26:29.000Z,10.82
2022-10-05T03:27:26.000Z,10.81
2022-10-05T03:28:24.000Z,10.81
2022-10-05T03:29:32.000Z,10.82
2022-10-05T03:30:18.000Z,10.81
2022-10-05T03:31:45.000Z,10.82
2022-10-05T03:32:32.000Z,10.81
2022-10-05T03:33:22.000Z,10.80
2022-10-05T03:34:25.000Z,10.81
2022-10-05T03:35:21.000Z,10.80
2022-10-05T03:36:35.000Z,10.78
2022-10-05T03:37:27.000Z,10.78
2022-10-05T03:38:23.000Z,10.78
2022-10-05T03:39:36.000Z,10.77
2022-10-05T03:40:23.000Z,10.78
2022-10-05T03:41:29.000Z,10.77
2022-10-05T03:42:23.000Z,10.74
2022-10-05T03:43:36.000Z,10.75
2022-10-05T03:44:23.000Z,10.78
2022-10-05T03:45:23.000Z,10.75
2022-10-05T03:46:33.000Z,10.75
2022-10-05T03:47:23.000Z,10.75
2022-10-05T03:48:22.000Z,10.72
2022-10-05T03:49:27.000Z,10.77
2022-10-05T03:50:23.000Z,10.74
2022-10-05T03:51:23.000Z,10.75
2022-10-05T03:52:22.000Z,10.77
2022-10-05T03:53:19.000Z,10.75
2022-10-05T03:54:23.000Z,10.75
2022-10-05T03:55:29.000Z,10.78
2022-10-05T03:56:22.000Z,10.80
2022-10-05T03:57:18.000Z,10.78
2022-10-05T03:58:24.000Z,10.82
2022-10-05T03:59:24.000Z,10.81
2022-10-05T04:00:19.000Z,10.82
2022-10-05T04:01:21.000Z,10.84
2022-10-05T04:02:23.000Z,10.82
2022-10-05T04:03:36.000Z,10.82
2022-10-05T04:04:25.000Z,10.82
2022-10-05T04:05:17.000Z,10.85
2022-10-05T04:06:36.000Z,10.84
2022-10-05T04:07:23.000Z,10.82
2022-10-05T04:08:23.000Z,10.81
2022-10-05T04:09:24.000Z,10.81
2022-10-05T04:10:20.000Z,10.81
2022-10-05T04:11:22.000Z,10.80
2022-10-05T04:12:22.000Z,10.80
2022-10-05T04:13:20.000Z,10.80
2022-10-05T04:14:20.000Z,10.78
2022-10-05T04:15:21.000Z,10.78
2022-10-05T04:16:22.000Z,10.77
2022-10-05T04:17:23.000Z,10.77
2022-10-05T04:18:22.000Z,10.75
2022-10-05T04:19:20.000Z,10.75
2022-10-05T04:20:29.000Z,10.75
2022-10-05T04:21:22.000Z,10.75
2022-10-05T04:22:21.000Z,10.74
2022-10-05T04:23:27.000Z,10.72
2022-10-05T04:24:25.000Z,10.72
2022-10-05T04:25:17.000Z,10.70
2022-10-05T04:26:18.000Z,10.70
2022-10-05T04:27:19.000Z,10.68
2022-10-05T04:28:22.000Z,10.70
2022-10-05T04:29:29.000Z,10.68
2022-10-05T04:30:29.000Z,10.70
2022-10-05T04:31:26.000Z,10.70
2022-10-05T04:32:27.000Z,10.68
2022-10-05T04:33:14.000Z,10.70
2022-10-05T04:34:32.000Z,10.67
2022-10-05T04:35:26.000Z,10.67
2022-10-05T04:36:35.000Z,10.65
2022-10-05T04:37:32.000Z,10.65
2022-10-05T04:38:22.000Z,10.65
2022-10-05T04:39:27.000Z,10.64
2022-10-05T04:40:29.000Z,10.68
2022-10-05T04:41:33.000Z,10.67
2022-10-05T04:42:27.000Z,10.68
2022-10-05T04:43:22.000Z,10.65
2022-10-05T04:44:32.000Z,10.67
2022-10-05T04:45:27.000Z,10.65
2022-10-05T04:46:33.000Z,10.67
2022-10-05T04:47:21.000Z,10.68
2022-10-05T04:48:26.000Z,10.67
2022-10-05T04:49:40.000Z,10.67
2022-10-05T04:50:35.000Z,10.68
2022-10-05T04:51:22.000Z,10.67
2022-10-05T04:52:22.000Z,10.64
2022-10-05T04:53:27.000Z,10.68
2022-10-05T04:54:26.000Z,10.68
2022-10-05T04:55:32.000Z,10.70
2022-10-05T04:56:19.000Z,10.70
2022-10-05T04:57:25.000Z,10.70
2022-10-05T04:58:25.000Z,10.70
2022-10-05T04:59:36.000Z,10.72
2022-10-05T05:00:20.000Z,10.74
2022-10-05T05:01:27.000Z,10.72
2022-10-05T05:02:22.000Z,10.71
2022-10-05T05:03:40.000Z,10.70
2022-10-05T05:04:22.000Z,10.72
2022-10-05T05:05:33.000Z,10.71
2022-10-05T05:06:22.000Z,10.71
2022-10-05T05:07:29.000Z,10.71
2022-10-05T05:08:35.000Z,10.68
2022-10-05T05:09:27.000Z,10.71
2022-10-05T05:10:45.000Z,10.71
2022-10-05T05:11:32.000Z,10.71
2022-10-05T05:12:29.000Z,10.72
2022-10-05T05:13:22.000Z,10.72
2022-10-05T05:14:32.000Z,10.71
2022-10-05T05:15:39.000Z,10.74
2022-10-05T05:16:22.000Z,10.72
2022-10-05T05:17:22.000Z,10.72
2022-10-05T05:18:26.000Z,10.71
2022-10-05T05:19:22.000Z,10.71
2022-10-05T05:20:24.000Z,10.71
2022-10-05T05:21:22.000Z,10.70
2022-10-05T05:22:43.000Z,10.71
2022-10-05T05:23:35.000Z,10.70
2022-10-05T05:24:22.000Z,10.68
2022-10-05T05:25:23.000Z,10.67
2022-10-05T05:26:26.000Z,10.70
2022-10-05T05:27:36.000Z,10.68
2022-10-05T05:28:26.000Z,10.64
2022-10-05T05:29:25.000Z,10.68
2022-10-05T05:30:23.000Z,10.67
2022-10-05T05:31:22.000Z,10.65
2022-10-05T05:32:33.000Z,10.64
2022-10-05T05:33:33.000Z,10.64
2022-10-05T05:34:32.000Z,10.65
2022-10-05T05:35:23.000Z,10.67
2022-10-05T05:36:29.000Z,10.67
2022-10-05T05:37:31.000Z,10.64
2022-10-05T05:38:31.000Z,10.64
2022-10-05T05:39:35.000Z,10.65
2022-10-05T05:40:33.000Z,10.65
2022-10-05T05:41:37.000Z,10.64
2022-10-05T05:42:26.000Z,10.65
2022-10-05T05:43:23.000Z,10.65
2022-10-05T05:44:23.000Z,10.63
2022-10-05T05:45:26.000Z,10.64
2022-10-05T05:46:24.000Z,10.64
2022-10-05T05:47:19.000Z,10.63
2022-10-05T05:48:23.000Z,10.61
2022-10-05T05:49:23.000Z,10.61
2022-10-05T05:50:24.000Z,10.60
2022-10-05T05:51:27.000Z,10.61
2022-10-05T05:52:23.000Z,10.60
2022-10-05T05:53:19.000Z,10.61
2022-10-05T05:54:23.000Z,10.60
2022-10-05T05:55:20.000Z,10.60
2022-10-05T05:56:19.000Z,10.60
2022-10-05T05:57:29.000Z,10.57
2022-10-05T05:58:20.000Z,10.59
2022-10-05T05:59:18.000Z,10.61
2022-10-05T06:00:33.000Z,10.60
2022-10-05T06:01:23.000Z,10.60
2022-10-05T06:02:20.000Z,10.60
2022-10-05T06:03:21.000Z,10.61
2022-10-05T06:04:22.000Z,10.61
2022-10-05T06:05:34.000Z,10.63
2022-10-05T06:06:16.000Z,10.61
2022-10-05T06:07:21.000Z,10.64
2022-10-05T06:08:23.000Z,10.64
2022-10-05T06:09:25.000Z,10.64
2022-10-05T06:10:23.000Z,10.65
2022-10-05T06:11:35.000Z,10.64
2022-10-05T06:12:21.000Z,10.65
2022-10-05T06:13:19.000Z,10.65
2022-10-05T06:14:33.000Z,10.67
2022-10-05T06:15:31.000Z,10.67
2022-10-05T06:16:23.000Z,10.65
2022-10-05T06:17:21.000Z,10.64
2022-10-05T06:18:17.000Z,10.65
2022-10-05T06:19:19.000Z,10.65
2022-10-05T06:20:28.000Z,10.65
2022-10-05T06:21:23.000Z,10.67
2022-10-05T06:22:19.000Z,10.67
2022-10-05T06:23:19.000Z,10.67
2022-10-05T06:24:19.000Z,10.68
2022-10-05T06:25:38.000Z,10.68
2022-10-05T06:26:27.000Z,10.68
2022-10-05T06:27:23.000Z,10.67
2022-10-05T06:28:13.000Z,10.70
2022-10-05T06:29:23.000Z,10.71
2022-10-05T06:30:15.000Z,10.72
2022-10-05T06:31:35.000Z,10.71
2022-10-05T06:32:28.000Z,10.71
2022-10-05T06:33:33.000Z,10.72
2022-10-05T06:34:24.000Z,10.72
2022-10-05T06:35:22.000Z,10.77
2022-10-05T06:36:33.000Z,10.77
2022-10-05T06:37:26.000Z,10.78
2022-10-05T06:38:46.000Z,10.80
2022-10-05T06:39:35.000Z,10.82
2022-10-05T06:40:27.000Z,10.82
2022-10-05T06:41:38.000Z,10.84
2022-10-05T06:42:33.000Z,10.85
2022-10-05T06:43:32.000Z,10.88
2022-10-05T06:44:22.000Z,10.87
2022-10-05T06:45:20.000Z,10.87
2022-10-05T06:46:20.000Z,10.90
2022-10-05T06:47:32.000Z,10.92
2022-10-05T06:48:29.000Z,10.91
2022-10-05T06:49:20.000Z,10.96
2022-10-05T06:50:21.000Z,10.96
2022-10-05T06:51:22.000Z,11.01
2022-10-05T06:52:23.000Z,11.03
2022-10-05T06:53:22.000Z,11.03
2022-10-05T06:54:23.000Z,11.05
2022-10-05T06:55:23.000Z,11.08
2022-10-05T06:56:35.000Z,11.09
2022-10-05T06:57:32.000Z,11.13
2022-10-05T06:58:22.000Z,11.13
2022-10-05T06:59:22.000Z,11.18
2022-10-05T07:00:25.000Z,11.19
2022-10-05T07:01:27.000Z,11.21
2022-10-05T07:02:24.000Z,11.21
2022-10-05T07:03:23.000Z,11.22
2022-10-05T07:04:31.000Z,11.23
2022-10-05T07:05:29.000Z,11.27
2022-10-05T07:06:32.000Z,11.25
2022-10-05T07:07:27.000Z,11.27
2022-10-05T07:08:33.000Z,11.32
2022-10-05T07:09:39.000Z,11.33
2022-10-05T07:10:24.000Z,11.33
2022-10-05T07:11:24.000Z,11.38
2022-10-05T07:12:28.000Z,11.40
2022-10-05T07:13:33.000Z,11.42
2022-10-05T07:14:38.000Z,11.42
2022-10-05T07:15:44.000Z,11.46
2022-10-05T07:16:22.000Z,11.47
2022-10-05T07:17:22.000Z,11.50
2022-10-05T07:18:28.000Z,11.54
2022-10-05T07:19:26.000Z,11.54
2022-10-05T07:20:22.000Z,11.59
2022-10-05T07:21:33.000Z,11.56
2022-10-05T07:22:22.000Z,11.63
2022-10-05T07:23:36.000Z,11.64
2022-10-05T07:24:29.000Z,11.67
2022-10-05T07:25:21.000Z,11.73
2022-10-05T07:26:27.000Z,11.74
2022-10-05T07:27:22.000Z,11.77
2022-10-05T07:28:26.000Z,11.81
2022-10-05T07:29:22.000Z,11.84
2022-10-05T07:30:14.000Z,11.88
2022-10-05T07:31:27.000Z,11.90
2022-10-05T07:32:22.000Z,11.92
2022-10-05T07:33:21.000Z,11.95
2022-10-05T07:34:26.000Z,11.97
2022-10-05T07:35:37.000Z,12.02
2022-10-05T07:36:27.000Z,12.06
2022-10-05T07:37:30.000Z,12.11
2022-10-05T07:38:26.000Z,12.11
2022-10-05T07:39:25.000Z,12.17
2022-10-05T07:40:24.000Z,12.18
2022-10-05T07:41:35.000Z,12.22
2022-10-05T07:42:27.000Z,12.25
2022-10-05T07:43:25.000Z,12.31
2022-10-05T07:44:23.000Z,12.33
2022-10-05T07:45:36.000Z,12.38
2022-10-05T07:46:23.000Z,12.39
2022-10-05T07:47:28.000Z,12.42
2022-10-05T07:48:19.000Z,12.42
2022-10-05T07:49:27.000Z,12.46
2022-10-05T07:50:23.000Z,12.46
2022-10-05T07:51:30.000Z,12.49
2022-10-05T07:52:21.000Z,12.49
2022-10-05T07:53:18.000Z,12.51
2022-10-05T07:54:22.000Z,12.53
2022-10-05T07:55:22.000Z,12.55
2022-10-05T07:56:24.000Z,12.60
2022-10-05T07:57:27.000Z,12.62
2022-10-05T07:58:46.000Z,12.66
2022-10-05T07:59:30.000Z,12.69
2022-10-05T08:00:21.000Z,12.72
2022-10-05T08:01:23.000Z,12.77
2022-10-05T08:02:24.000Z,12.77
2022-10-05T08:03:22.000Z,12.81
2022-10-05T08:04:20.000Z,12.84
2022-10-05T08:05:23.000Z,12.88
2022-10-05T08:06:23.000Z,12.96
2022-10-05T08:07:15.000Z,12.99
2022-10-05T08:08:30.000Z,12.99
2022-10-05T08:09:24.000Z,13.06
2022-10-05T08:10:36.000Z,13.07
2022-10-05T08:11:20.000Z,13.11
2022-10-05T08:12:23.000Z,13.13
2022-10-05T08:13:22.000Z,13.15
2022-10-05T08:14:29.000Z,13.17
2022-10-05T08:15:23.000Z,13.21
2022-10-05T08:16:13.000Z,13.32
2022-10-05T08:17:23.000Z,13.38
2022-10-05T08:18:32.000Z,13.43
2022-10-05T08:19:31.000Z,13.46
2022-10-05T08:20:35.000Z,13.52
2022-10-05T08:21:17.000Z,13.56
2022-10-05T08:22:22.000Z,13.59
2022-10-05T08:23:22.000Z,13.62
2022-10-05T08:24:33.000Z,13.68
2022-10-05T08:25:24.000Z,13.72
2022-10-05T08:26:35.000Z,13.76
2022-10-05T08:27:26.000Z,13.82
2022-10-05T08:28:20.000Z,13.86
2022-10-05T08:29:24.000Z,13.89
2022-10-05T08:30:14.000Z,13.93
2022-10-05T08:31:22.000Z,13.96
2022-10-05T08:32:21.000Z,13.96
2022-10-05T08:33:16.000Z,14.00
2022-10-05T08:34:27.000Z,14.09
2022-10-05T08:35:26.000Z,14.11
2022-10-05T08:36:16.000Z,14.13
2022-10-05T08:37:23.000Z,14.14
2022-10-05T08:38:16.000Z,14.19
2022-10-05T08:39:16.000Z,14.19
2022-10-05T08:40:32.000Z,14.23
2022-10-05T08:41:22.000Z,14.25
2022-10-05T08:42:30.000Z,14.32
2022-10-05T08:43:33.000Z,14.32
2022-10-05T08:44:23.000Z,14.35
2022-10-05T08:45:23.000Z,14.35
2022-10-05T08:46:26.000Z,14.41
2022-10-05T08:47:31.000Z,14.44
2022-10-05T08:48:39.000Z,14.47
2022-10-05T08:49:23.000Z,14.50
2022-10-05T08:50:23.000Z,14.55
2022-10-05T08:51:31.000Z,14.54
2022-10-05T08:52:40.000Z,14.54
2022-10-05T08:53:20.000Z,14.54
2022-10-05T08:54:27.000Z,14.57
2022-10-05T08:55:26.000Z,14.59
2022-10-05T08:56:34.000Z,14.64
2022-10-05T08:57:43.000Z,14.68
2022-10-05T08:58:29.000Z,14.67
2022-10-05T08:59:33.000Z,14.67
2022-10-05T09:00:18.000Z,14.71
2022-10-05T09:01:21.000Z,14.75
2022-10-05T09:02:37.000Z,14.79
2022-10-05T09:03:23.000Z,14.82
2022-10-05T09:04:23.000Z,14.82
2022-10-05T09:05:27.000Z,14.83
2022-10-05T09:06:21.000Z,14.92
2022-10-05T09:07:36.000Z,14.95
2022-10-05T09:08:33.000Z,14.95
2022-10-05T09:09:30.000Z,14.99
2022-10-05T09:10:48.000Z,15.02
2022-10-05T09:11:40.000Z,15.07
2022-10-05T09:12:31.000Z,15.11
2022-10-05T09:13:32.000Z,15.14
2022-10-05T09:14:30.000Z,15.17
2022-10-05T09:15:35.000Z,15.19
2022-10-05T09:16:32.000Z,15.21
2022-10-05T09:17:22.000Z,15.26
2022-10-05T09:18:35.000Z,15.27
2022-10-05T09:19:22.000Z,15.33
2022-10-05T09:20:28.000Z,15.34
2022-10-05T09:21:23.000Z,15.39
2022-10-05T09:22:21.000Z,15.39
2022-10-05T09:23:28.000Z,15.41
2022-10-05T09:24:29.000Z,15.44
2022-10-05T09:25:35.000Z,15.46
2022-10-05T09:26:22.000Z,15.46
2022-10-05T09:27:15.000Z,15.46
2022-10-05T09:28:22.000Z,15.41
2022-10-05T09:29:33.000Z,15.46
2022-10-05T09:30:22.000Z,15.46
2022-10-05T09:31:22.000Z,15.46
2022-10-05T09:32:22.000Z,15.48
2022-10-05T09:33:22.000Z,15.47
2022-10-05T09:34:22.000Z,15.57
2022-10-05T09:35:43.000Z,15.58
2022-10-05T09:36:26.000Z,15.58
2022-10-05T09:37:35.000Z,15.61
2022-10-05T09:38:24.000Z,15.64
2022-10-05T09:39:22.000Z,15.67
2022-10-05T09:40:35.000Z,15.72
2022-10-05T09:41:35.000Z,15.74
2022-10-05T09:42:25.000Z,15.86
2022-10-05T09:43:48.000Z,15.79
2022-10-05T09:44:22.000Z,15.82
2022-10-05T09:45:22.000Z,15.86
2022-10-05T09:46:22.000Z,15.86
2022-10-05T09:47:39.000Z,15.95
2022-10-05T09:48:32.000Z,15.93
2022-10-05T09:49:22.000Z,15.99
2022-10-05T09:50:32.000Z,16.02
2022-10-05T09:51:29.000Z,16.09
2022-10-05T09:52:32.000Z,16.16
2022-10-05T09:53:22.000Z,16.16
2022-10-05T09:54:22.000Z,16.25
2022-10-05T09:55:25.000Z,16.22
2022-10-05T09:56:22.000Z,16.25
2022-10-05T09:57:30.000Z,16.23
2022-10-05T09:58:49.000Z,16.30
2022-10-05T09:59:28.000Z,16.36
2022-10-05T10:00:22.000Z,16.32
2022-10-05T10:01:25.000Z,16.39
2022-10-05T10:02:25.000Z,16.36
2022-10-05T10:03:22.000Z,16.41
2022-10-05T10:04:22.000Z,16.47
2022-10-05T10:05:23.000Z,16.49
2022-10-05T10:06:22.000Z,16.50
2022-10-05T10:07:22.000Z,16.56
2022-10-05T10:08:35.000Z,16.61
2022-10-05T10:09:21.000Z,16.64
2022-10-05T10:10:27.000Z,16.70
2022-10-05T10:11:34.000Z,16.72
2022-10-05T10:12:32.000Z,16.75
2022-10-05T10:13:34.000Z,16.78
2022-10-05T10:14:22.000Z,16.90
2022-10-05T10:15:23.000Z,16.90
2022-10-05T10:16:23.000Z,16.90
2022-10-05T10:17:22.000Z,16.95
2022-10-05T10:18:22.000Z,16.97
2022-10-05T10:19:33.000Z,16.97
2022-10-05T10:20:36.000Z,16.97
2022-10-05T10:21:36.000Z,17.01
2022-10-05T10:22:32.000Z,16.97
2022-10-05T10:23:31.000Z,16.98
2022-10-05T10:24:34.000Z,17.02
2022-10-05T10:25:31.000Z,17.05
2022-10-05T10:26:27.000Z,17.09
2022-10-05T10:27:35.000Z,17.12
2022-10-05T10:28:22.000Z,17.14
2022-10-05T10:29:36.000Z,17.14
2022-10-05T10:30:39.000Z,17.14
2022-10-05T10:31:36.000Z,17.15
2022-10-05T10:32:45.000Z,17.15
2022-10-05T10:33:37.000Z,17.17
2022-10-05T10:34:36.000Z,17.19
2022-10-05T10:35:22.000Z,17.22
2022-10-05T10:36:22.000Z,17.22
2022-10-05T10:37:33.000Z,17.28
2022-10-05T10:38:23.000Z,17.35
2022-10-05T10:39:23.000Z,17.38
2022-10-05T10:40:33.000Z,17.40
2022-10-05T10:41:23.000Z,17.39
2022-10-05T10:42:32.000Z,17.40
2022-10-05T10:43:29.000Z,17.39
2022-10-05T10:44:35.000Z,17.48
2022-10-05T10:45:22.000Z,17.43
2022-10-05T10:46:22.000Z,17.49
2022-10-05T10:47:22.000Z,17.50
2022-10-05T10:48:32.000Z,17.52
2022-10-05T10:49:24.000Z,17.66
2022-10-05T10:50:34.000Z,17.63
2022-10-05T10:51:22.000Z,17.67
2022-10-05T10:52:32.000Z,17.69
2022-10-05T10:53:25.000Z,17.70
2022-10-05T10:54:45.000Z,17.77
2022-10-05T10:55:28.000Z,17.74
2022-10-05T10:56:26.000Z,17.77
2022-10-05T10:57:27.000Z,17.81
2022-10-05T10:58:22.000Z,17.80
2022-10-05T10:59:22.000Z,17.87
2022-10-05T11:00:34.000Z,17.87
2022-10-05T11:01:28.000Z,17.87
2022-10-05T11:02:22.000Z,17.86
2022-10-05T11:03:35.000Z,17.88
2022-10-05T11:04:32.000Z,17.94
2022-10-05T11:05:36.000Z,17.97
2022-10-05T11:06:32.000Z,18.04
2022-10-05T11:07:22.000Z,18.11
2022-10-05T11:08:44.000Z,18.09
2022-10-05T11:09:29.000Z,18.08
2022-10-05T11:10:22.000Z,18.12
2022-10-05T11:11:36.000Z,18.15
2022-10-05T11:12:32.000Z,18.22
2022-10-05T11:13:40.000Z,18.18
2022-10-05T11:14:32.000Z,18.18
2022-10-05T11:15:28.000Z,18.22
2022-10-05T11:16:32.000Z,18.27
2022-10-05T11:17:36.000Z,18.28
2022-10-05T11:18:25.000Z,18.31
2022-10-05T11:19:35.000Z,18.29
2022-10-05T11:20:22.000Z,18.33
2022-10-05T11:21:36.000Z,18.36
2022-10-05T11:22:30.000Z,18.44
2022-10-05T11:23:32.000Z,18.39
2022-10-05T11:24:22.000Z,18.35
2022-10-05T11:25:33.000Z,18.41
2022-10-05T11:26:27.000Z,18.56
2022-10-05T11:27:22.000Z,18.58
2022-10-05T11:28:22.000Z,18.58
2022-10-05T11:29:22.000Z,18.54
2022-10-05T11:30:22.000Z,18.72
2022-10-05T11:31:22.000Z,18.72
2022-10-05T11:32:44.000Z,18.70
2022-10-05T11:33:22.000Z,18.69
2022-10-05T11:34:36.000Z,18.70
2022-10-05T11:35:25.000Z,18.69
2022-10-05T11:36:22.000Z,18.70
2022-10-05T11:37:21.000Z,18.77
2022-10-05T11:38:28.000Z,18.82
2022-10-05T11:39:22.000Z,18.83
2022-10-05T11:40:37.000Z,18.79
2022-10-05T11:41:30.000Z,18.87
2022-10-05T11:42:28.000Z,18.89
2022-10-05T11:43:22.000Z,18.89
2022-10-05T11:44:32.000Z,18.91
2022-10-05T11:45:24.000Z,18.97
2022-10-05T11:46:25.000Z,18.93
2022-10-05T11:47:36.000Z,18.98
2022-10-05T11:48:22.000Z,18.98
2022-10-05T11:49:22.000Z,19.11
2022-10-05T11:50:21.000Z,19.14
2022-10-05T11:51:22.000Z,19.23
2022-10-05T11:52:22.000Z,19.21
2022-10-05T11:53:23.000Z,19.28
2022-10-05T11:54:33.000Z,19.31
2022-10-05T11:55:23.000Z,19.30
2022-10-05T11:56:33.000Z,19.30
2022-10-05T11:57:21.000Z,19.35
2022-10-05T11:58:22.000Z,19.38
2022-10-05T11:59:19.000Z,19.38
2022-10-05T12:00:17.000Z,19.35
2022-10-05T12:01:22.000Z,19.39
2022-10-05T12:02:36.000Z,19.42
2022-10-05T12:03:23.000Z,19.39
2022-10-05T12:04:22.000Z,19.41
2022-10-05T12:05:23.000Z,19.45
2022-10-05T12:06:24.000Z,19.48
2022-10-05T12:07:24.000Z,19.44
2022-10-05T12:08:32.000Z,19.48
2022-10-05T12:09:32.000Z,19.47
2022-10-05T12:10:35.000Z,19.47
2022-10-05T12:11:29.000Z,19.54
2022-10-05T12:12:24.000Z,19.54
2022-10-05T12:13:22.000Z,19.62
2022-10-05T12:14:32.000Z,19.59
2022-10-05T12:15:23.000Z,19.65
2022-10-05T12:16:21.000Z,19.65
2022-10-05T12:17:22.000Z,19.70
2022-10-05T12:18:21.000Z,19.72
2022-10-05T12:19:23.000Z,19.72
2022-10-05T12:20:30.000Z,19.78
2022-10-05T12:21:36.000Z,19.73
2022-10-05T12:22:23.000Z,19.72
2022-10-05T12:23:18.000Z,19.75
2022-10-05T12:24:20.000Z,19.75
2022-10-05T12:25:23.000Z,19.72
2022-10-05T12:26:23.000Z,19.70
2022-10-05T12:27:20.000Z,19.76
2022-10-05T12:28:21.000Z,19.76
2022-10-05T12:29:21.000Z,19.75
2022-10-05T12:30:32.000Z,19.78
2022-10-05T12:31:20.000Z,19.80
2022-10-05T12:32:24.000Z,19.82
2022-10-05T12:33:21.000Z,19.87
2022-10-05T12:34:32.000Z,19.92
2022-10-05T12:35:25.000Z,19.90
2022-10-05T12:36:33.000Z,19.93
2022-10-05T12:37:22.000Z,19.97
2022-10-05T12:38:26.000Z,19.97
2022-10-05T12:39:26.000Z,19.92
2022-10-05T12:40:23.000Z,19.92
2022-10-05T12:41:23.000Z,19.89
2022-10-05T12:42:22.000Z,19.90
2022-10-05T12:43:29.000Z,19.95
2022-10-05T12:44:26.000Z,19.96
2022-10-05T12:45:22.000Z,19.97
2022-10-05T12:46:27.000Z,20.03
2022-10-05T12:47:36.000Z,20.00
2022-10-05T12:48:34.000Z,20.05
2022-10-05T12:49:22.000Z,20.03
2022-10-05T12:50:22.000Z,20.05
2022-10-05T12:51:23.000Z,20.06
2022-10-05T12:52:36.000Z,20.10